createdAt,value
2022-09-20T00:00:20.906Z,8.68
2022-09-20T00:05:22.914Z,8.69
2022-09-20T00:10:24.711Z,8.68
2022-09-20T00:15:28.151Z,8.71
2022-09-20T00:20:31.093Z,8.45
2022-09-20T00:25:32.780Z,8.44
2022-09-20T00:30:36.287Z,8.56
2022-09-20T00:35:38.023Z,8.45
2022-09-20T00:40:40.881Z,8.34
2022-09-20T00:45:47.519Z,8.45
2022-09-20T00:50:54.732Z,8.46
2022-09-20T00:56:01.526Z,8.51
2022-09-20T01:01:06.360Z,8.60
2022-09-20T01:06:12.109Z,8.56
2022-09-20T01:11:14.215Z,8.70
2022-09-20T01:16:19.477Z,8.87
2022-09-20T01:21:21.846Z,8.93
2022-09-20T01:26:38.223Z,8.90
2022-09-20T01:31:49.905Z,9.02
2022-09-20T01:36:58.106Z,8.95
2022-09-20T01:42:05.508Z,9.00
2022-09-20T01:47:26.156Z,9.04
2022-09-20T01:53:06.874Z,9.03
2022-09-20T01:58:50.507Z,9.07
2022-09-20T02:04:17.519Z,9.17
2022-09-20T02:10:03.856Z,9.30
2022-09-20T02:15:17.613Z,9.37
2022-09-20T02:20:33.079Z,9.42
2022-09-20T02:26:00.038Z,9.43
2022-09-20T02:31:16.021Z,9.42
2022-09-20T02:36:37.519Z,9.46
2022-09-20T02:42:06.087Z,9.52
2022-09-20T02:47:17.655Z,9.52
2022-09-20T02:52:29.412Z,9.52
2022-09-20T02:57:51.213Z,9.52
2022-09-20T03:03:07.270Z,9.56
2022-09-20T03:08:29.007Z,9.58
2022-09-20T03:13:49.007Z,9.65
2022-09-20T03:19:02.654Z,9.76
2022-09-20T03:24:18.661Z,9.61
2022-09-20T03:29:33.309Z,9.69
2022-09-20T03:34:45.408Z,9.67
2022-09-20T03:40:19.737Z,9.70
2022-09-20T03:45:36.914Z,9.84
2022-09-20T03:50:51.460Z,9.73
2022-09-20T03:56:39.568Z,9.71
2022-09-20T04:02:04.048Z,9.69
2022-09-20T04:07:15.507Z,9.69
2022-09-20T04:12:27.940Z,9.68
2022-09-20T04:17:42.022Z,9.64
2022-09-20T04:22:47.004Z,9.63
2022-09-20T04:27:55.176Z,9.58
2022-09-20T04:33:01.387Z,9.64
2022-09-20T04:38:08.621Z,9.62
2022-09-20T04:43:42.032Z,9.66
2022-09-20T04:49:15.777Z,9.71
2022-09-20T04:54:37.721Z,9.58
2022-09-20T05:00:00.146Z,9.53
2022-09-20T05:05:31.453Z,9.54
2022-09-20T05:11:16.560Z,9.46
2022-09-20T05:16:25.316Z,9.47
2022-09-20T05:21:57.914Z,9.45
2022-09-20T05:27:15.954Z,9.44
2022-09-20T05:32:27.830Z,9.43
2022-09-20T05:37:41.332Z,9.54
2022-09-20T05:42:52.466Z,9.53
2022-09-20T05:48:05.396Z,9.65
2022-09-20T05:53:31.923Z,9.76
2022-09-20T05:58:47.647Z,10.03
2022-09-20T06:04:00.605Z,10.32
2022-09-20T06:09:20.873Z,10.12
2022-09-20T06:14:37.951Z,10.29
2022-09-20T06:19:45.697Z,10.28
2022-09-20T06:24:54.468Z,10.54
2022-09-20T06:30:00.527Z,10.54
2022-09-20T06:35:05.085Z,10.73
2022-09-20T06:40:16.518Z,10.78
2022-09-20T06:45:18.208Z,10.82
2022-09-20T06:50:21.608Z,10.89
2022-09-20T06:55:30.870Z,11.24
2022-09-20T07:00:33.169Z,10.99
2022-09-20T07:05:36.285Z,10.64
2022-09-20T07:10:38.773Z,10.64
2022-09-20T07:15:40.446Z,10.58
2022-09-20T07:20:44.036Z,10.67
2022-09-20T07:25:46.351Z,10.93
2022-09-20T07:30:48.450Z,11.75
2022-09-20T07:35:52.746Z,12.16
2022-09-20T07:40:56.106Z,12.42
2022-09-20T07:45:58.521Z,12.62
2022-09-20T07:51:08.456Z,12.87
2022-09-20T07:56:12.545Z,12.83
2022-09-20T08:01:14.608Z,13.30
2022-09-20T08:06:17.797Z,12.92
2022-09-20T08:11:22.075Z,13.29
2022-09-20T08:16:24.409Z,13.09
2022-09-20T08:21:30.539Z,12.67
2022-09-20T08:26:32.440Z,12.68
2022-09-20T08:31:37.263Z,13.18
2022-09-20T08:36:42.327Z,13.11
2022-09-20T08:41:48.427Z,12.94
2022-09-20T08:46:55.570Z,13.27
2022-09-20T08:52:00.579Z,13.55
2022-09-20T08:57:03.951Z,13.32
2022-09-20T09:02:14.733Z,13.42
2022-09-20T09:07:20.244Z,13.47
2022-09-20T09:12:25.061Z,13.19
2022-09-20T09:17:28.738Z,13.68
2022-09-20T09:22:40.735Z,14.20
2022-09-20T09:27:55.407Z,13.70
2022-09-20T09:33:16.073Z,16.57
2022-09-20T09:38:21.847Z,15.31
2022-09-20T09:43:26.597Z,15.79
2022-09-20T09:48:30.233Z,16.48
2022-09-20T09:53:33.421Z,15.20
2022-09-20T09:58:50.420Z,15.14
2022-09-20T10:03:56.760Z,14.95
2022-09-20T10:09:12.851Z,14.46
2022-09-20T10:14:28.735Z,13.97
2022-09-20T10:19:46.371Z,15.67
2022-09-20T10:24:56.934Z,15.19
2022-09-20T10:30:08.021Z,17.18
2022-09-20T10:35:22.312Z,17.40
2022-09-20T10:40:33.097Z,16.50
2022-09-20T10:46:20.532Z,14.73
2022-09-20T10:51:22.053Z,18.30
2022-09-20T10:56:30.820Z,19.51
2022-09-20T11:01:40.541Z,16.86
2022-09-20T11:06:56.053Z,17.55
2022-09-20T11:12:12.827Z,18.12
2022-09-20T11:17:19.691Z,18.67
2022-09-20T11:22:27.088Z,17.20
2022-09-20T11:27:37.289Z,16.56
2022-09-20T11:32:44.605Z,16.07
2022-09-20T11:37:51.024Z,16.41
2022-09-20T11:42:57.301Z,17.16
2022-09-20T11:48:06.148Z,17.54
2022-09-20T11:53:24.947Z,17.96
2022-09-20T11:58:28.797Z,16.85
2022-09-20T12:03:35.172Z,15.92
2022-09-20T12:08:39.574Z,15.93
2022-09-20T12:13:52.287Z,15.96
2022-09-20T12:19:05.704Z,15.60
2022-09-20T12:24:21.501Z,15.93
2022-09-20T12:29:54.078Z,17.22
2022-09-20T12:34:56.475Z,17.65
2022-09-20T12:39:58.552Z,17.46
2022-09-20T12:45:05.112Z,16.08
2022-09-20T12:50:13.997Z,16.69
2022-09-20T12:55:30.373Z,16.81
2022-09-20T13:00:37.451Z,15.88
2022-09-20T13:06:23.040Z,15.65
2022-09-20T13:11:29.602Z,15.25
2022-09-20T13:16:47.436Z,14.71
2022-09-20T13:21:56.465Z,12.91
2022-09-20T13:27:03.315Z,11.73
2022-09-20T13:32:23.545Z,11.08
2022-09-20T13:37:26.172Z,10.91
2022-09-20T13:42:29.999Z,10.80
2022-09-20T13:47:33.047Z,10.82
2022-09-20T13:52:45.292Z,10.98
2022-09-20T13:57:47.273Z,11.13
2022-09-20T14:02:51.340Z,11.37
2022-09-20T14:07:54.017Z,11.64
2022-09-20T14:12:56.975Z,11.81
2022-09-20T14:18:01.469Z,11.71
2022-09-20T14:23:03.512Z,11.81
2022-09-20T14:28:17.847Z,11.67
2022-09-20T14:33:21.128Z,11.56
2022-09-20T14:38:26.796Z,11.53
2022-09-20T14:43:30.933Z,11.41
2022-09-20T14:48:39.889Z,11.34
2022-09-20T14:53:42.852Z,11.33
2022-09-20T14:59:04.710Z,11.37
2022-09-20T15:04:10.051Z,11.43
2022-09-20T15:09:13.082Z,11.37
2022-09-20T15:14:14.999Z,11.36
2022-09-20T15:19:18.009Z,11.26
2022-09-20T15:24:19.710Z,11.37
2022-09-20T15:29:21.823Z,11.57
2022-09-20T15:34:24.847Z,11.89
2022-09-20T15:39:26.731Z,12.46
2022-09-20T15:44:28.376Z,13.17
2022-09-20T15:49:31.527Z,13.09
2022-09-20T15:54:33.773Z,12.84
2022-09-20T15:59:35.503Z,12.63
2022-09-20T16:04:38.485Z,12.47
2022-09-20T16:09:40.446Z,12.31
2022-09-20T16:14:42.084Z,12.27
2022-09-20T16:19:45.298Z,12.33
2022-09-20T16:24:47.376Z,12.11
2022-09-20T16:29:49.028Z,11.80
2022-09-20T16:34:52.151Z,11.56
2022-09-20T16:39:54.346Z,11.44
2022-09-20T16:44:56.118Z,11.13
2022-09-20T16:49:59.219Z,10.89
2022-09-20T16:55:01.128Z,10.71
2022-09-20T17:00:04.759Z,10.64
2022-09-20T17:05:08.901Z,10.37
2022-09-20T17:10:11.026Z,10.25
2022-09-20T17:15:12.621Z,10.08
2022-09-20T17:20:15.905Z,9.80
2022-09-20T17:25:17.496Z,9.80
2022-09-20T17:30:19.242Z,9.80
2022-09-20T17:35:22.755Z,9.68
2022-09-20T17:40:24.630Z,9.41
2022-09-20T17:45:26.258Z,9.27
2022-09-20T17:50:32.044Z,9.15
2022-09-20T17:55:34.168Z,9.02
2022-09-20T18:00:36.318Z,9.06
2022-09-20T18:05:39.292Z,9.12
2022-09-20T18:10:40.964Z,9.15
2022-09-20T18:15:43.296Z,9.19
2022-09-20T18:20:46.649Z,9.05
2022-09-20T18:25:48.298Z,8.99
2022-09-20T18:30:59.553Z,8.92
2022-09-20T18:36:05.204Z,8.94
2022-09-20T18:41:07.205Z,8.95
2022-09-20T18:46:09.361Z,9.02
2022-09-20T18:51:12.809Z,9.06
2022-09-20T18:56:21.755Z,8.95
2022-09-20T19:01:52.381Z,8.73
2022-09-20T19:07:06.363Z,8.53
2022-09-20T19:12:18.091Z,8.39
2022-09-20T19:17:25.043Z,8.14
2022-09-20T19:22:46.472Z,8.11
2022-09-20T19:27:48.660Z,7.93
2022-09-20T19:32:51.095Z,7.84
2022-09-20T19:38:04.286Z,7.81
2022-09-20T19:43:27.525Z,7.85
2022-09-20T19:48:35.228Z,7.66
2022-09-20T19:53:39.158Z,7.50
2022-09-20T19:58:41.412Z,7.42
2022-09-20T20:03:46.634Z,7.33
2022-09-20T20:08:56.669Z,7.51
2022-09-20T20:14:04.676Z,7.51
2022-09-20T20:19:23.775Z,7.24
2022-09-20T20:24:34.854Z,7.30
2022-09-20T20:29:36.622Z,7.14
2022-09-20T20:34:38.749Z,7.03
2022-09-20T20:39:41.847Z,6.90
2022-09-20T20:44:43.722Z,6.85
2022-09-20T20:49:47.521Z,6.76
2022-09-20T20:54:53.803Z,6.78
2022-09-20T20:59:55.439Z,6.72
2022-09-20T21:04:57.239Z,6.54
2022-09-20T21:10:00.519Z,6.46
2022-09-20T21:15:02.181Z,6.45
2022-09-20T21:20:04.115Z,6.44
2022-09-20T21:25:08.131Z,6.24
2022-09-20T21:30:10.947Z,6.21
2022-09-20T21:35:12.755Z,6.19
2022-09-20T21:40:16.042Z,6.19
2022-09-20T21:45:17.979Z,6.16
2022-09-20T21:50:19.673Z,6.04
2022-09-20T21:55:22.771Z,5.99
2022-09-20T22:00:24.475Z,5.94
2022-09-20T22:05:26.115Z,5.95
2022-09-20T22:10:29.160Z,6.01
2022-09-20T22:15:30.880Z,5.95
2022-09-20T22:20:32.549Z,5.87
2022-09-20T22:25:35.613Z,5.74
2022-09-20T22:30:38.127Z,5.66
2022-09-20T22:35:44.330Z,5.63
2022-09-20T22:40:55.889Z,5.59
2022-09-20T22:46:03.199Z,5.47
2022-09-20T22:51:06.942Z,5.50
2022-09-20T22:56:11.707Z,5.35
2022-09-20T23:01:16.296Z,5.34
2022-09-20T23:06:20.154Z,5.29
2022-09-20T23:11:24.116Z,5.17
2022-09-20T23:16:27.848Z,5.31
2022-09-20T23:21:29.937Z,5.23
2022-09-20T23:26:34.966Z,5.09
2022-09-20T23:31:39.121Z,5.07
2022-09-20T23:36:43.236Z,5.01
2022-09-20T23:41:50.885Z,5.04
2022-09-20T23:46:53.449Z,4.96
2022-09-20T23:51:55.290Z,5.00
2022-09-20T23:56:58.269Z,5.04
